Time;durP1;ratioP1;P1;durP2;ratioP2;P2;SDS_P1;SDS_P2;PMS_P1;PMS_P2;Temp;Humidity;BMP_temperature;BMP_pressure;BME280_temperature;BME280_humidity;BME280_pressure;Samples;Min_cycle;Max_cycle;Signal;HPM_P1;HPM_P2
2023/11/10 00:00:37;;;;;;;6.63;2.20;;;6.80;99.90;;;;;;5016059;28;20046;-64
2023/11/10 00:03:03;;;;;;;5.07;1.60;;;6.80;99.90;;;;;;5016308;28;20038;-64
2023/11/10 00:05:32;;;;;;;5.45;1.33;;;6.80;99.90;;;;;;5031130;28;20037;-64
2023/11/10 00:07:59;;;;;;;8.10;1.50;;;6.80;99.90;;;;;;5016154;28;20456;-64
2023/11/10 00:10:26;;;;;;;9.13;1.70;;;6.80;99.90;;;;;;5015618;28;20042;-64
2023/11/10 00:12:53;;;;;;;5.57;1.58;;;6.80;99.90;;;;;;5015585;28;20144;-66
2023/11/10 00:15:22;;;;;;;12.00;1.90;;;6.80;99.90;;;;;;5016290;28;20050;-64
2023/11/10 00:17:53;;;;;;;10.32;1.92;;;6.80;99.90;;;;;;5015620;28;20113;-64
2023/11/10 00:20:22;;;;;;;8.73;1.40;;;6.80;99.90;;;;;;5015747;28;20042;-64
2023/11/10 00:22:49;;;;;;;8.13;1.77;;;6.80;99.90;;;;;;5031262;28;20037;-64
2023/11/10 00:25:16;;;;;;;11.77;1.80;;;6.80;99.90;;;;;;4998291;28;20038;-65
2023/11/10 00:27:43;;;;;;;11.13;1.90;;;6.90;99.90;;;;;;5015571;28;20407;-64
2023/11/10 00:30:10;;;;;;;8.90;2.10;;;6.90;99.90;;;;;;5015850;28;20096;-64
2023/11/10 00:32:37;;;;;;;11.85;2.75;;;6.90;99.90;;;;;;5015524;28;20046;-64
2023/11/10 00:35:04;;;;;;;10.70;1.88;;;6.90;99.90;;;;;;5015474;28;20050;-65
2023/11/10 00:37:31;;;;;;;7.13;2.42;;;7.00;99.90;;;;;;4998139;28;20053;-65
2023/11/10 00:40:00;;;;;;;12.73;2.10;;;7.00;99.90;;;;;;5015419;28;20122;-64
2023/11/10 00:42:28;;;;;;;10.70;1.98;;;7.00;99.90;;;;;;5014821;28;20056;-64
2023/11/10 00:44:56;;;;;;;12.50;2.25;;;7.00;99.90;;;;;;4997864;28;20479;-65
2023/11/10 00:47:23;;;;;;;14.68;2.05;;;7.00;99.90;;;;;;4997293;28;20415;-63
2023/11/10 00:49:50;;;;;;;10.65;1.98;;;7.00;99.90;;;;;;5014949;28;20116;-63
2023/11/10 00:52:18;;;;;;;9.50;2.10;;;7.00;99.90;;;;;;5015689;28;20041;-63
2023/11/10 00:54:46;;;;;;;10.88;1.92;;;6.90;99.90;;;;;;5015115;28;20499;-65
2023/11/10 00:57:13;;;;;;;10.88;2.13;;;7.00;99.90;;;;;;4997520;28;20048;-63
2023/11/10 00:59:40;;;;;;;14.57;2.50;;;7.00;99.90;;;;;;5015149;28;20547;-64
2023/11/10 01:02:07;;;;;;;8.18;1.90;;;7.00;99.90;;;;;;5015195;28;20038;-64
2023/11/10 01:04:34;;;;;;;17.20;2.40;;;7.10;99.90;;;;;;4997882;28;20084;-64
2023/11/10 01:07:01;;;;;;;11.75;2.35;;;7.20;99.90;;;;;;5014847;28;20049;-64
2023/11/10 01:09:28;;;;;;;9.85;2.72;;;7.20;99.90;;;;;;4997269;28;20384;-64
2023/11/10 01:11:55;;;;;;;13.27;2.17;;;7.20;99.90;;;;;;4997168;28;20128;-64
2023/11/10 01:14:22;;;;;;;15.65;2.00;;;7.20;99.90;;;;;;4997018;28;20060;-64
2023/11/10 01:16:48;;;;;;;9.07;1.95;;;7.10;99.90;;;;;;5014913;28;20085;-64
2023/11/10 01:19:15;;;;;;;11.35;2.17;;;7.10;99.90;;;;;;5014610;28;20046;-64
2023/11/10 01:21:42;;;;;;;12.80;2.20;;;7.10;99.90;;;;;;5014288;28;20104;-64
2023/11/10 01:24:09;;;;;;;12.88;2.80;;;7.10;99.90;;;;;;5014389;28;20495;-63
2023/11/10 01:26:36;;;;;;;16.00;2.38;;;7.00;99.90;;;;;;5014872;28;20113;-65
2023/11/10 01:29:03;;;;;;;12.73;2.95;;;7.00;99.90;;;;;;5014655;28;20096;-64
2023/11/10 01:31:29;;;;;;;15.23;2.17;;;7.00;99.90;;;;;;5014749;28;20045;-64
2023/11/10 01:33:56;;;;;;;10.95;2.33;;;6.90;99.90;;;;;;5014094;28;20112;-65
2023/11/10 01:36:24;;;;;;;9.93;2.20;;;6.90;99.90;;;;;;5014379;28;20190;-64
2023/11/10 01:38:51;;;;;;;12.32;2.35;;;6.90;99.90;;;;;;4996424;28;20078;-64
2023/11/10 01:41:20;;;;;;;14.40;2.75;;;6.90;99.90;;;;;;5014504;28;20042;-64
2023/11/10 01:43:47;;;;;;;16.70;2.75;;;6.90;99.90;;;;;;5008846;28;20113;-64
2023/11/10 01:46:14;;;;;;;13.82;3.38;;;6.90;99.90;;;;;;4975114;28;20038;-64
2023/11/10 01:48:40;;;;;;;11.50;2.13;;;6.90;99.90;;;;;;4974102;28;20054;-64
2023/11/10 01:51:07;;;;;;;16.17;2.05;;;7.00;99.90;;;;;;4975348;28;20039;-64
2023/11/10 01:53:34;;;;;;;14.38;3.30;;;7.00;99.90;;;;;;4975326;28;20074;-64
2023/11/10 01:56:01;;;;;;;12.02;2.40;;;7.00;99.90;;;;;;4975526;28;20047;-59
2023/11/10 01:58:28;;;;;;;12.63;3.08;;;7.00;99.90;;;;;;4973416;28;20075;-60
2023/11/10 02:00:55;;;;;;;16.05;2.63;;;7.00;99.90;;;;;;4974019;28;20451;-59
2023/11/10 02:03:23;;;;;;;16.92;3.15;;;7.10;99.90;;;;;;4974006;28;20481;-58
2023/11/10 02:05:50;;;;;;;15.77;2.65;;;7.10;99.90;;;;;;4974277;28;20035;-59
2023/11/10 02:08:17;;;;;;;16.67;2.88;;;7.10;99.90;;;;;;4973215;28;20057;-59
2023/11/10 02:10:44;;;;;;;14.43;2.60;;;7.10;99.90;;;;;;4974841;28;20051;-59
2023/11/10 02:13:11;;;;;;;13.45;2.22;;;7.20;99.90;;;;;;4973878;28;20428;-59
2023/11/10 02:15:38;;;;;;;15.98;2.78;;;7.20;99.90;;;;;;4973766;28;20050;-60
2023/11/10 02:18:04;;;;;;;17.23;2.60;;;7.20;99.90;;;;;;4973103;28;20070;-58
2023/11/10 02:20:31;;;;;;;11.85;2.30;;;7.20;99.90;;;;;;4973681;28;20042;-59
2023/11/10 02:22:58;;;;;;;13.55;2.47;;;7.20;99.90;;;;;;4973366;28;20154;-60
2023/11/10 02:25:25;;;;;;;13.73;2.92;;;7.30;99.90;;;;;;4973675;28;20038;-64
2023/11/10 02:27:52;;;;;;;16.25;2.80;;;7.30;99.90;;;;;;4974917;28;20504;-65
2023/11/10 02:30:19;;;;;;;15.57;3.42;;;7.30;99.90;;;;;;4973472;28;20045;-64
2023/11/10 02:32:46;;;;;;;16.10;2.33;;;7.30;99.90;;;;;;4974455;28;20042;-65
2023/11/10 02:35:15;;;;;;;18.63;2.67;;;7.30;99.90;;;;;;4974728;28;20114;-64
2023/11/10 02:37:42;;;;;;;12.27;2.60;;;7.30;99.90;;;;;;4974591;28;20397;-65
2023/11/10 02:40:09;;;;;;;19.77;2.83;;;7.30;99.90;;;;;;4973274;28;20039;-64
2023/11/10 02:42:35;;;;;;;12.52;2.70;;;7.40;99.90;;;;;;4989408;28;20116;-65
2023/11/10 02:45:03;;;;;;;23.55;3.30;;;7.30;99.90;;;;;;5013872;28;20100;-64
2023/11/10 02:47:31;;;;;;;20.35;2.85;;;7.40;99.90;;;;;;5013383;28;20042;-64
2023/11/10 02:49:58;;;;;;;16.02;2.80;;;7.30;99.90;;;;;;5013385;28;20546;-64
2023/11/10 02:52:25;;;;;;;14.52;2.60;;;7.40;99.90;;;;;;4996131;28;20145;-63
2023/11/10 02:54:52;;;;;;;15.40;3.20;;;7.40;99.90;;;;;;4995741;28;20529;-63
2023/11/10 02:57:20;;;;;;;17.35;3.60;;;7.40;99.90;;;;;;5013187;28;20463;-63
2023/11/10 02:59:48;;;;;;;19.33;3.47;;;7.40;99.90;;;;;;4995416;28;20045;-63
2023/11/10 03:02:14;;;;;;;20.02;2.90;;;7.40;99.90;;;;;;5013132;28;20044;-65
2023/11/10 03:04:41;;;;;;;22.88;3.33;;;7.30;99.90;;;;;;5013718;28;20045;-65
2023/11/10 03:07:09;;;;;;;19.45;3.08;;;7.40;99.90;;;;;;4995915;28;20513;-63
2023/11/10 03:09:36;;;;;;;18.08;2.53;;;7.40;99.90;;;;;;4995939;28;20054;-63
2023/11/10 03:12:03;;;;;;;19.83;2.90;;;7.50;99.90;;;;;;5028250;28;20093;-63
2023/11/10 03:14:29;;;;;;;18.02;3.00;;;7.50;99.90;;;;;;4995434;28;20127;-63
2023/11/10 03:16:56;;;;;;;14.57;2.85;;;7.60;99.90;;;;;;5013096;28;20057;-64
2023/11/10 03:19:24;;;;;;;13.73;2.38;;;7.60;99.90;;;;;;5013026;28;20046;-64
2023/11/10 03:21:50;;;;;;;15.63;2.17;;;7.60;99.90;;;;;;5015548;28;20490;-59
2023/11/10 03:24:17;;;;;;;12.38;2.42;;;7.60;99.90;;;;;;4999505;28;20057;-59
2023/11/10 03:26:44;;;;;;;15.35;2.20;;;7.60;99.90;;;;;;5016929;28;20038;-59
2023/11/10 03:29:12;;;;;;;19.17;2.63;;;7.50;99.90;;;;;;4999024;28;20137;-59
2023/11/10 03:31:39;;;;;;;15.55;2.53;;;7.50;99.90;;;;;;4999018;28;20463;-58
2023/11/10 03:34:06;;;;;;;13.95;2.30;;;7.50;99.90;;;;;;4999227;28;20057;-58
2023/11/10 03:36:32;;;;;;;15.35;2.67;;;7.50;99.90;;;;;;5017313;28;20124;-57
2023/11/10 03:38:59;;;;;;;20.08;2.35;;;7.40;99.90;;;;;;4999008;28;20076;-57
2023/11/10 03:41:26;;;;;;;17.15;2.45;;;7.40;99.90;;;;;;5017289;28;20165;-64
2023/11/10 03:43:53;;;;;;;17.52;2.55;;;7.40;99.90;;;;;;4998581;28;20056;-65
2023/11/10 03:46:20;;;;;;;17.98;2.97;;;7.50;99.90;;;;;;5016662;28;20050;-64
2023/11/10 03:48:46;;;;;;;15.60;2.50;;;7.50;99.90;;;;;;5016188;28;20042;-64
2023/11/10 03:51:13;;;;;;;15.82;2.55;;;7.50;99.90;;;;;;5032106;28;20049;-64
2023/11/10 03:53:41;;;;;;;14.52;2.55;;;7.60;99.90;;;;;;5016683;28;20041;-65
2023/11/10 03:56:08;;;;;;;14.93;2.70;;;7.60;99.90;;;;;;5016708;28;20041;-65
2023/11/10 03:58:35;;;;;;;10.38;2.40;;;7.60;99.90;;;;;;5016388;28;20507;-65
2023/11/10 04:01:07;;;;;;;14.07;2.50;;;7.60;99.90;;;;;;5016497;28;20060;-64
2023/11/10 04:03:34;;;;;;;14.82;2.50;;;7.60;99.90;;;;;;5016712;28;20472;-65
2023/11/10 04:06:01;;;;;;;12.18;2.13;;;7.60;99.90;;;;;;5016533;28;20042;-64
2023/11/10 04:08:28;;;;;;;13.45;2.08;;;7.60;99.90;;;;;;5015872;28;20061;-65
2023/11/10 04:10:54;;;;;;;13.55;2.22;;;7.60;99.90;;;;;;5031524;28;20109;-65
2023/11/10 04:13:21;;;;;;;16.33;3.72;;;7.60;99.90;;;;;;5031622;28;20049;-64
2023/11/10 04:15:48;;;;;;;12.32;2.55;;;7.60;99.90;;;;;;5016079;28;20042;-65
2023/11/10 04:18:21;;;;;;;17.50;3.03;;;7.50;99.90;;;;;;5015584;28;20050;-66
2023/11/10 04:20:48;;;;;;;17.67;2.63;;;7.50;99.90;;;;;;5031463;28;20046;-64
2023/11/10 04:23:15;;;;;;;14.60;3.35;;;7.50;99.90;;;;;;5016042;28;20376;-65
2023/11/10 04:25:42;;;;;;;17.45;2.60;;;7.50;99.90;;;;;;5016007;28;20042;-64
2023/11/10 04:28:11;;;;;;;20.33;2.67;;;7.40;99.90;;;;;;5014745;28;20104;-64
2023/11/10 04:30:39;;;;;;;15.82;2.22;;;7.40;99.90;;;;;;5015882;28;20124;-64
2023/11/10 04:33:06;;;;;;;11.88;2.42;;;7.40;99.90;;;;;;5015695;28;20048;-64
2023/11/10 04:35:33;;;;;;;13.68;2.72;;;7.40;99.90;;;;;;5015757;28;20052;-65
2023/11/10 04:38:00;;;;;;;15.23;2.40;;;7.40;99.90;;;;;;5015295;28;20046;-64
2023/11/10 04:40:27;;;;;;;15.73;4.05;;;7.40;99.90;;;;;;5015575;28;20123;-65
2023/11/10 04:42:55;;;;;;;14.38;2.55;;;7.40;99.90;;;;;;5015075;28;20458;-65
2023/11/10 04:45:24;;;;;;;13.38;2.20;;;7.40;99.90;;;;;;5015353;28;20038;-65
2023/11/10 04:47:54;;;;;;;11.55;2.40;;;7.40;99.90;;;;;;5015148;28;20080;-64
2023/11/10 04:50:21;;;;;;;10.30;2.28;;;7.50;99.90;;;;;;5015208;28;20402;-65
2023/11/10 04:52:48;;;;;;;11.13;2.40;;;7.40;99.90;;;;;;5015456;28;20046;-65
2023/11/10 04:55:15;;;;;;;16.00;2.58;;;7.50;99.90;;;;;;4997648;28;20076;-64
2023/11/10 04:57:42;;;;;;;14.80;2.28;;;7.50;99.90;;;;;;5015323;28;20104;-65
2023/11/10 05:00:09;;;;;;;9.77;2.50;;;7.50;99.90;;;;;;5015112;28;20034;-64
2023/11/10 05:02:36;;;;;;;15.30;2.10;;;7.50;99.90;;;;;;5014853;28;20491;-64
2023/11/10 05:05:03;;;;;;;14.93;2.72;;;7.50;99.90;;;;;;5014988;28;20049;-64
2023/11/10 05:07:30;;;;;;;10.15;2.08;;;7.50;99.90;;;;;;5014959;28;20045;-65
2023/11/10 05:09:58;;;;;;;9.02;2.75;;;7.50;99.90;;;;;;5015346;28;20088;-64
2023/11/10 05:12:27;;;;;;;8.55;1.90;;;7.50;99.90;;;;;;5014743;28;20038;-65
2023/11/10 05:14:54;;;;;;;9.68;1.35;;;7.60;99.90;;;;;;4997676;28;20368;-66
2023/11/10 05:17:21;;;;;;;8.40;2.10;;;7.60;99.90;;;;;;5014795;28;20121;-66
2023/11/10 05:19:49;;;;;;;7.45;1.30;;;7.70;99.90;;;;;;5014425;28;20061;-65
2023/11/10 05:22:16;;;;;;;5.90;1.50;;;7.70;99.90;;;;;;5014970;28;20046;-65
2023/11/10 05:24:43;;;;;;;7.28;1.40;;;7.70;99.90;;;;;;5014942;28;20459;-65
2023/11/10 05:27:10;;;;;;;5.60;1.10;;;7.80;99.90;;;;;;5014631;28;20543;-65
2023/11/10 05:29:37;;;;;;;4.03;1.00;;;7.80;99.90;;;;;;4996798;28;20038;-64
2023/11/10 05:32:05;;;;;;;3.83;1.00;;;7.90;99.90;;;;;;5014436;28;20045;-64
2023/11/10 05:34:32;;;;;;;3.35;0.75;;;7.90;99.90;;;;;;5014382;28;20046;-65
2023/11/10 05:36:58;;;;;;;4.43;0.82;;;7.90;99.90;;;;;;5029423;28;20046;-65
2023/11/10 05:39:25;;;;;;;5.85;0.80;;;8.00;99.90;;;;;;5014439;28;20052;-64
2023/11/10 05:41:52;;;;;;;3.15;0.60;;;8.00;99.90;;;;;;5014644;28;20121;-64
2023/11/10 05:44:20;;;;;;;2.67;0.57;;;8.00;99.90;;;;;;5013769;28;20108;-64
2023/11/10 05:46:46;;;;;;;3.45;0.63;;;8.00;99.90;;;;;;5014401;28;20049;-64
2023/11/10 05:49:13;;;;;;;2.85;0.43;;;8.00;99.90;;;;;;5014287;28;20042;-64
2023/11/10 05:51:40;;;;;;;2.70;0.50;;;8.00;99.90;;;;;;5014172;28;20050;-64
2023/11/10 05:54:07;;;;;;;1.65;0.28;;;8.00;99.90;;;;;;5013967;28;20465;-64
2023/11/10 05:56:34;;;;;;;0.70;0.35;;;8.00;99.90;;;;;;5014108;28;20088;-64
2023/11/10 05:59:01;;;;;;;2.47;0.45;;;8.00;99.90;;;;;;5013944;28;20121;-65
2023/11/10 06:01:28;;;;;;;1.38;0.40;;;8.10;99.90;;;;;;5014343;28;20038;-66
2023/11/10 06:03:56;;;;;;;0.93;0.35;;;8.10;99.90;;;;;;5013965;28;20499;-66
2023/11/10 06:06:28;;;;;;;2.85;0.45;;;8.00;99.90;;;;;;5013569;28;20042;-65
2023/11/10 06:08:55;;;;;;;1.90;0.40;;;8.00;99.90;;;;;;5013782;28;20049;-64
2023/11/10 06:11:22;;;;;;;0.80;0.30;;;8.00;99.90;;;;;;5013591;28;20038;-65
2023/11/10 06:13:49;;;;;;;0.95;0.28;;;7.90;99.90;;;;;;5013746;28;20066;-65
2023/11/10 06:16:16;;;;;;;0.77;0.20;;;7.90;99.90;;;;;;5014002;28;20475;-59
2023/11/10 06:18:44;;;;;;;2.08;0.50;;;7.90;99.90;;;;;;5013671;28;20111;-63
2023/11/10 06:21:11;;;;;;;0.50;0.20;;;7.80;99.90;;;;;;5013542;28;20061;-63
2023/11/10 06:23:38;;;;;;;0.85;0.30;;;7.80;99.90;;;;;;5013693;28;20125;-63
2023/11/10 06:26:05;;;;;;;1.17;0.35;;;7.80;99.90;;;;;;5014231;28;20078;-63
2023/11/10 06:28:32;;;;;;;0.95;0.30;;;7.70;99.90;;;;;;5014031;28;20044;-63
2023/11/10 06:30:58;;;;;;;2.40;0.50;;;7.70;99.90;;;;;;5013687;28;20046;-64
2023/11/10 06:33:25;;;;;;;1.52;0.30;;;7.70;99.90;;;;;;5013548;28;20121;-65
2023/11/10 06:35:52;;;;;;;1.60;0.35;;;7.60;99.90;;;;;;5013964;28;20052;-65
2023/11/10 06:38:19;;;;;;;1.00;0.40;;;7.60;99.90;;;;;;5013785;28;20127;-64
2023/11/10 06:40:46;;;;;;;1.27;0.30;;;7.50;99.90;;;;;;5013595;28;20038;-64
2023/11/10 06:43:12;;;;;;;1.23;0.32;;;7.50;99.90;;;;;;5013153;28;20138;-64
2023/11/10 06:45:39;;;;;;;3.05;0.68;;;7.40;99.90;;;;;;5013621;28;20046;-64
2023/11/10 06:48:06;;;;;;;0.57;0.30;;;7.40;99.90;;;;;;5013162;28;20042;-64
2023/11/10 06:50:33;;;;;;;0.40;0.30;;;7.40;99.90;;;;;;5013369;28;20040;-65
2023/11/10 06:53:00;;;;;;;3.78;0.57;;;7.40;99.90;;;;;;5013155;28;20471;-65
2023/11/10 06:55:26;;;;;;;2.55;0.63;;;7.30;99.90;;;;;;5015367;28;20056;-64
2023/11/10 06:57:53;;;;;;;3.28;0.65;;;7.30;99.90;;;;;;5017231;28;20402;-64
2023/11/10 07:00:20;;;;;;;3.30;0.60;;;7.30;99.90;;;;;;5017350;28;20065;-64
2023/11/10 07:02:47;;;;;;;4.03;0.57;;;7.30;99.90;;;;;;5017183;28;20100;-64
2023/11/10 07:05:16;;;;;;;2.78;0.50;;;7.30;99.90;;;;;;5016960;28;20041;-65
2023/11/10 07:07:43;;;;;;;2.60;0.60;;;7.30;99.90;;;;;;5032242;28;20080;-59
2023/11/10 07:10:10;;;;;;;3.58;0.80;;;7.20;99.90;;;;;;4998708;28;20437;-58
2023/11/10 07:12:37;;;;;;;4.80;0.70;;;7.20;99.90;;;;;;5017096;28;20038;-58
2023/11/10 07:15:04;;;;;;;2.45;0.60;;;7.20;99.90;;;;;;4999637;28;20042;-59
2023/11/10 07:17:31;;;;;;;3.72;0.80;;;7.20;99.90;;;;;;5016656;28;20124;-60
2023/11/10 07:19:58;;;;;;;2.58;0.80;;;7.20;99.90;;;;;;5016656;28;20038;-59
2023/11/10 07:22:25;;;;;;;7.53;0.90;;;7.20;99.90;;;;;;5017474;28;20041;-63
2023/11/10 07:24:52;;;;;;;4.57;1.10;;;7.20;99.90;;;;;;5016945;28;20459;-59
2023/11/10 07:27:19;;;;;;;4.50;0.85;;;7.20;99.90;;;;;;5017123;28;20041;-59
2023/11/10 07:29:46;;;;;;;5.28;0.90;;;7.20;99.90;;;;;;5016672;28;20136;-57
2023/11/10 07:32:13;;;;;;;2.85;0.70;;;7.20;99.90;;;;;;5016967;28;20125;-57
2023/11/10 07:34:40;;;;;;;4.93;0.80;;;7.20;99.90;;;;;;5016430;28;20038;-58
2023/11/10 07:37:07;;;;;;;5.38;1.17;;;7.20;99.90;;;;;;5016526;28;20038;-58
2023/11/10 07:39:35;;;;;;;5.40;1.10;;;7.20;99.90;;;;;;5016810;28;20042;-57
2023/11/10 07:42:03;;;;;;;4.85;1.40;;;7.20;99.90;;;;;;4998829;28;20379;-57
2023/11/10 07:44:30;;;;;;;7.40;1.20;;;7.30;99.90;;;;;;4994673;28;20065;-57
2023/11/10 07:46:57;;;;;;;5.13;1.15;;;7.30;99.90;;;;;;5015641;28;20048;-57
2023/11/10 07:49:25;;;;;;;9.40;1.40;;;7.30;99.90;;;;;;4997730;28;20041;-62
2023/11/10 07:51:53;;;;;;;5.38;1.35;;;7.30;99.90;;;;;;5015999;28;20065;-62
2023/11/10 07:54:20;;;;;;;7.38;1.20;;;7.30;99.90;;;;;;5015616;28;20061;-63
2023/11/10 07:56:47;;;;;;;8.43;1.45;;;7.40;99.90;;;;;;5021520;28;20494;-57
2023/11/10 07:59:14;;;;;;;9.85;1.35;;;7.40;99.90;;;;;;5018792;28;20431;-64
2023/11/10 08:01:41;;;;;;;9.00;1.77;;;7.40;99.90;;;;;;5015405;28;20042;-64
2023/11/10 08:04:11;;;;;;;5.80;1.65;;;7.50;99.90;;;;;;5015777;28;20096;-64
2023/11/10 08:06:38;;;;;;;7.82;1.70;;;7.50;99.90;;;;;;5015038;28;20046;-64
2023/11/10 08:09:05;;;;;;;9.57;1.63;;;7.60;99.90;;;;;;5015682;28;20057;-58
2023/11/10 08:11:32;;;;;;;11.23;1.80;;;7.60;99.90;;;;;;5015852;28;20049;-57
2023/11/10 08:14:15;;;;;;;7.75;1.20;;;7.70;99.90;;;;;;5015181;28;20076;-57
2023/11/10 08:16:42;;;;;;;8.00;1.48;;;7.80;99.90;;;;;;5015282;28;20045;-55
2023/11/10 08:19:10;;;;;;;7.68;1.55;;;7.80;99.90;;;;;;5015293;28;20056;-56
2023/11/10 08:21:37;;;;;;;6.47;1.30;;;7.90;99.90;;;;;;5015570;28;20049;-58
2023/11/10 08:24:06;;;;;;;7.82;1.50;;;8.00;99.90;;;;;;5015190;28;20046;-57
2023/11/10 08:26:33;;;;;;;8.15;1.70;;;8.10;99.90;;;;;;5015323;28;20038;-58
2023/11/10 08:29:00;;;;;;;7.70;1.98;;;8.20;99.90;;;;;;5015061;28;20038;-56
2023/11/10 08:31:27;;;;;;;8.63;1.95;;;8.30;99.90;;;;;;5014936;28;20045;-58
2023/11/10 08:33:53;;;;;;;6.28;1.60;;;8.40;99.90;;;;;;5014508;28;20046;-57
2023/11/10 08:36:22;;;;;;;8.68;1.80;;;8.50;99.90;;;;;;5014996;28;20049;-57
2023/11/10 08:38:49;;;;;;;8.07;1.80;;;8.50;99.90;;;;;;5014993;28;20054;-57
2023/11/10 08:41:17;;;;;;;7.45;1.83;;;8.60;99.90;;;;;;5014517;28;20046;-57
2023/11/10 08:43:45;;;;;;;8.63;2.13;;;8.70;99.90;;;;;;5014875;28;20452;-58
2023/11/10 08:46:12;;;;;;;8.68;1.45;;;8.70;99.90;;;;;;5014940;28;20391;-57
2023/11/10 08:48:39;;;;;;;7.70;1.65;;;8.80;99.90;;;;;;5014635;28;20093;-57
2023/11/10 08:51:06;;;;;;;4.18;1.25;;;8.80;99.90;;;;;;5014742;28;20284;-58
2023/11/10 08:53:32;;;;;;;5.68;1.60;;;8.90;99.90;;;;;;5014457;28;20411;-58
2023/11/10 08:56:03;;;;;;;8.70;1.73;;;8.90;99.90;;;;;;4998220;28;20398;-64
2023/11/10 08:58:30;;;;;;;8.35;1.42;;;9.00;99.90;;;;;;5014426;28;20042;-64
2023/11/10 09:00:58;;;;;;;11.02;2.10;;;9.00;99.90;;;;;;5014425;28;20057;-65
2023/11/10 09:03:24;;;;;;;8.50;1.70;;;9.10;99.90;;;;;;4996489;28;20117;-65
2023/11/10 09:05:51;;;;;;;10.93;1.90;;;9.20;99.90;;;;;;5014372;28;20052;-65
2023/11/10 09:08:18;;;;;;;7.75;1.70;;;9.30;99.90;;;;;;5014247;28;20034;-58
2023/11/10 09:10:45;;;;;;;9.10;1.67;;;9.30;99.90;;;;;;5014362;28;20042;-62
2023/11/10 09:13:12;;;;;;;9.23;1.52;;;9.40;99.90;;;;;;5014172;28;20042;-62
2023/11/10 09:15:39;;;;;;;10.23;2.35;;;9.50;99.90;;;;;;5014432;28;20593;-63
2023/11/10 09:18:06;;;;;;;9.52;1.80;;;9.50;99.90;;;;;;5014370;28;20188;-64
2023/11/10 09:20:32;;;;;;;10.80;1.50;;;9.60;99.90;;;;;;5014258;28;20088;-63
2023/11/10 09:23:00;;;;;;;6.60;1.42;;;9.60;99.90;;;;;;5013730;28;20053;-64
2023/11/10 09:25:27;;;;;;;7.85;1.50;;;9.70;99.90;;;;;;5014227;28;20042;-62
2023/11/10 09:27:56;;;;;;;6.05;1.40;;;9.70;99.90;;;;;;5014616;28;20092;-59
2023/11/10 09:30:26;;;;;;;13.73;1.85;;;9.70;99.90;;;;;;5014967;28;20088;-60
2023/11/10 09:32:56;;;;;;;7.88;1.70;;;9.80;99.90;;;;;;5014149;28;20045;-64
2023/11/10 09:35:23;;;;;;;10.20;2.03;;;9.80;99.90;;;;;;5014809;28;20152;-64
2023/11/10 09:37:50;;;;;;;8.80;1.95;;;9.80;99.90;;;;;;4996386;28;20137;-63
2023/11/10 09:40:19;;;;;;;6.80;1.50;;;9.80;99.90;;;;;;5014533;28;20042;-64
2023/11/10 09:42:46;;;;;;;8.65;1.63;;;9.80;99.90;;;;;;5013136;28;20487;-59
2023/11/10 09:45:13;;;;;;;8.90;2.13;;;9.70;99.90;;;;;;5014302;28;20432;-59
2023/11/10 09:47:40;;;;;;;7.57;1.75;;;9.80;99.90;;;;;;5014026;28;20391;-59
2023/11/10 09:50:08;;;;;;;10.90;1.63;;;9.80;99.90;;;;;;5014260;28;20041;-59
2023/11/10 09:52:35;;;;;;;6.82;1.73;;;9.80;99.90;;;;;;5013922;28;20075;-59
2023/11/10 09:55:02;;;;;;;9.25;2.00;;;9.80;99.90;;;;;;5014299;28;20392;-59
2023/11/10 09:57:29;;;;;;;10.10;1.75;;;9.80;99.90;;;;;;5012974;28;20129;-59
2023/11/10 09:59:58;;;;;;;7.68;1.83;;;9.80;99.90;;;;;;5012633;28;20498;-59
2023/11/10 10:02:25;;;;;;;8.98;1.67;;;9.80;99.90;;;;;;5012712;28;20100;-59
2023/11/10 10:04:52;;;;;;;8.90;2.05;;;9.80;99.90;;;;;;5012611;28;20562;-59
2023/11/10 10:07:19;;;;;;;10.15;1.75;;;9.80;99.90;;;;;;5012736;28;20483;-59
2023/11/10 10:09:46;;;;;;;9.65;1.67;;;9.80;99.90;;;;;;5012744;28;20139;-59
2023/11/10 10:12:14;;;;;;;9.68;1.73;;;9.80;99.90;;;;;;5013602;28;20045;-59
2023/11/10 10:14:41;;;;;;;6.93;1.92;;;9.80;99.90;;;;;;4996039;28;20462;-59
2023/11/10 10:17:09;;;;;;;7.38;1.75;;;9.80;99.90;;;;;;5013749;28;20038;-59
2023/11/10 10:19:35;;;;;;;9.02;1.98;;;9.80;99.90;;;;;;5013483;28;20056;-59
2023/11/10 10:22:03;;;;;;;7.55;1.77;;;9.80;99.90;;;;;;5013560;28;20477;-59
2023/11/10 10:24:29;;;;;;;8.35;1.90;;;9.90;99.90;;;;;;5013790;28;20468;-59
2023/11/10 10:26:57;;;;;;;10.45;2.00;;;9.90;99.90;;;;;;5014136;28;20116;-59
2023/11/10 10:29:24;;;;;;;6.70;1.70;;;10.00;99.90;;;;;;5013467;28;20034;-59
2023/11/10 10:31:51;;;;;;;8.73;1.90;;;10.00;99.90;;;;;;5013504;28;20052;-64
2023/11/10 10:34:18;;;;;;;8.52;1.75;;;10.00;99.90;;;;;;5014133;28;20096;-64
2023/11/10 10:36:45;;;;;;;5.68;1.52;;;10.00;99.90;;;;;;5013301;28;20108;-64
2023/11/10 10:39:12;;;;;;;6.75;1.67;;;10.00;99.90;;;;;;5012965;28;20042;-64
2023/11/10 10:41:39;;;;;;;8.13;2.10;;;10.00;99.90;;;;;;5013166;28;20042;-64
2023/11/10 10:44:08;;;;;;;9.50;1.90;;;10.00;99.90;;;;;;4973358;28;20408;-64
2023/11/10 10:46:37;;;;;;;7.15;1.52;;;10.00;99.90;;;;;;4974111;28;20050;-63
2023/11/10 10:49:04;;;;;;;8.35;2.20;;;10.00;99.90;;;;;;4974113;28;20050;-64
2023/11/10 10:51:31;;;;;;;8.25;1.73;;;9.90;99.90;;;;;;4974012;28;20046;-64
2023/11/10 10:53:58;;;;;;;7.97;2.08;;;9.90;99.90;;;;;;4974138;28;20035;-64
2023/11/10 10:56:24;;;;;;;8.38;1.88;;;9.90;99.90;;;;;;4974657;28;20057;-63
2023/11/10 10:59:08;;;;;;;6.72;1.67;;;9.90;99.90;;;;;;4974307;28;20050;-59
2023/11/10 11:01:35;;;;;;;6.90;2.30;;;9.80;99.90;;;;;;4974435;28;20097;-64
2023/11/10 11:04:02;;;;;;;9.73;1.90;;;9.80;99.90;;;;;;4973261;28;20038;-64
2023/11/10 11:06:30;;;;;;;11.00;2.72;;;9.80;99.90;;;;;;4974151;28;20043;-65
2023/11/10 11:08:57;;;;;;;6.68;2.10;;;9.80;99.90;;;;;;4974341;28;20372;-64
2023/11/10 11:11:24;;;;;;;11.48;3.47;;;9.90;99.90;;;;;;4973884;28;20049;-64
2023/11/10 11:13:51;;;;;;;10.70;4.57;;;9.90;99.90;;;;;;4974161;28;20106;-65
2023/11/10 11:16:17;;;;;;;17.85;5.10;;;9.80;99.90;;;;;;4973061;28;20124;-64
2023/11/10 11:18:44;;;;;;;13.82;6.55;;;9.80;99.90;;;;;;4973993;28;20046;-64
2023/11/10 11:21:13;;;;;;;11.40;5.40;;;9.80;99.90;;;;;;4974153;28;20126;-63
2023/11/10 11:23:40;;;;;;;10.32;4.57;;;9.70;99.90;;;;;;4974429;28;20050;-64
2023/11/10 11:26:07;;;;;;;12.07;3.90;;;9.70;99.90;;;;;;4974456;28;20047;-64
2023/11/10 11:28:34;;;;;;;8.57;2.97;;;9.70;99.90;;;;;;4973807;28;20472;-63
2023/11/10 11:31:01;;;;;;;7.20;2.22;;;9.70;99.90;;;;;;4974206;28;20051;-64
2023/11/10 11:33:28;;;;;;;10.55;3.25;;;9.60;99.90;;;;;;4974090;28;20049;-59
2023/11/10 11:35:55;;;;;;;8.07;2.15;;;9.50;99.90;;;;;;4974021;28;20043;-59
2023/11/10 11:38:22;;;;;;;8.13;2.47;;;9.40;99.90;;;;;;4972333;28;20061;-59
2023/11/10 11:40:49;;;;;;;9.68;2.47;;;9.40;99.90;;;;;;4974188;28;20476;-59
2023/11/10 11:43:16;;;;;;;7.43;2.35;;;9.30;99.90;;;;;;5002077;28;20492;-59
2023/11/10 11:45:43;;;;;;;7.28;2.40;;;9.30;99.90;;;;;;5016597;28;20042;-59
2023/11/10 11:48:10;;;;;;;4.95;1.90;;;9.30;99.90;;;;;;4999021;28;20129;-59
2023/11/10 11:50:37;;;;;;;7.70;1.90;;;9.20;99.90;;;;;;5016700;28;20067;-59
2023/11/10 11:53:03;;;;;;;8.20;2.08;;;9.20;99.90;;;;;;5016170;28;20049;-59
2023/11/10 11:55:31;;;;;;;7.82;3.10;;;9.10;99.90;;;;;;5016519;28;20050;-59
2023/11/10 11:57:58;;;;;;;5.90;1.80;;;9.10;99.90;;;;;;5016252;28;20070;-59
2023/11/10 12:00:25;;;;;;;7.85;1.98;;;9.10;99.90;;;;;;5016778;28;20050;-59
2023/11/10 12:02:52;;;;;;;7.07;2.20;;;9.10;99.90;;;;;;5016475;28;20120;-58
2023/11/10 12:05:19;;;;;;;7.15;1.95;;;9.10;99.90;;;;;;5016630;28;20056;-59
2023/11/10 12:07:46;;;;;;;6.50;1.88;;;9.10;99.90;;;;;;5016150;28;20387;-59
2023/11/10 12:10:14;;;;;;;7.90;2.17;;;9.10;99.90;;;;;;5016489;28;20527;-59
2023/11/10 12:12:41;;;;;;;6.20;2.22;;;9.10;99.90;;;;;;5016204;28;20403;-59
2023/11/10 12:15:08;;;;;;;9.02;2.17;;;9.10;99.90;;;;;;5016268;28;20046;-59
2023/11/10 12:17:35;;;;;;;5.15;2.03;;;9.00;99.90;;;;;;4998223;28;20049;-59
2023/11/10 12:20:04;;;;;;;5.82;1.67;;;9.10;99.90;;;;;;5016190;28;20399;-58
2023/11/10 12:22:31;;;;;;;6.05;2.00;;;9.00;99.90;;;;;;5015673;28;20053;-59
2023/11/10 12:24:58;;;;;;;9.07;2.20;;;9.10;99.90;;;;;;5015806;28;20033;-59
2023/11/10 12:27:25;;;;;;;6.95;2.20;;;9.10;99.90;;;;;;5016284;28;20038;-59
2023/11/10 12:29:52;;;;;;;9.95;2.13;;;9.10;99.90;;;;;;5016129;28;20049;-65
2023/11/10 12:32:19;;;;;;;7.30;1.95;;;9.10;99.90;;;;;;5016201;28;20096;-65
2023/11/10 12:34:45;;;;;;;6.65;2.20;;;9.10;99.90;;;;;;5015852;28;20440;-65
2023/11/10 12:37:13;;;;;;;6.80;2.13;;;9.10;99.90;;;;;;5016139;28;20128;-65
2023/11/10 12:39:39;;;;;;;7.82;2.35;;;9.00;99.90;;;;;;5015919;28;20065;-65
2023/11/10 12:42:06;;;;;;;7.70;2.70;;;9.10;99.90;;;;;;5015485;28;20096;-65
2023/11/10 12:44:33;;;;;;;7.95;2.85;;;9.00;99.90;;;;;;5015979;28;20080;-65
2023/11/10 12:47:06;;;;;;;8.20;2.65;;;9.00;99.90;;;;;;5015987;28;20057;-65
2023/11/10 12:49:33;;;;;;;7.25;2.75;;;9.00;99.90;;;;;;5015308;28;20044;-65
2023/11/10 12:52:01;;;;;;;6.97;2.80;;;8.90;99.90;;;;;;5015351;28;20483;-65